createdAt,value
2019-01-23T00:01:27.361Z,37.53
2019-01-23T00:03:56.551Z,40.00
2019-01-23T00:06:25.635Z,39.53
2019-01-23T00:08:56.198Z,34.60
2019-01-23T00:11:25.231Z,40.13
2019-01-23T00:13:54.336Z,38.60
2019-01-23T00:16:23.434Z,40.17
2019-01-23T00:18:52.539Z,40.67
2019-01-23T00:21:21.579Z,39.20
2019-01-23T00:23:50.590Z,38.17
2019-01-23T00:26:19.607Z,40.37
2019-01-23T00:28:48.740Z,36.07
2019-01-23T00:31:17.744Z,40.37
2019-01-23T00:33:46.898Z,39.17
2019-01-23T00:36:15.994Z,37.53
2019-01-23T00:38:45.012Z,35.50
2019-01-23T00:41:14.083Z,37.37
2019-01-23T00:43:43.276Z,36.17
2019-01-23T00:46:12.419Z,39.13
2019-01-23T00:48:41.448Z,36.37
2019-01-23T00:51:10.536Z,38.13
2019-01-23T00:53:39.595Z,39.13
2019-01-23T00:56:08.654Z,40.83
2019-01-23T00:58:37.720Z,37.13
2019-01-23T01:03:42.470Z,35.10
2019-01-23T01:06:11.543Z,36.83
2019-01-23T01:08:40.551Z,33.07
2019-01-23T01:11:09.575Z,33.97
2019-01-23T01:13:38.663Z,35.20
2019-01-23T01:16:07.739Z,34.77
2019-01-23T01:18:36.856Z,35.63
2019-01-23T01:21:05.935Z,37.90
2019-01-23T01:23:35.003Z,34.53
2019-01-23T01:26:04.174Z,39.90
2019-01-23T01:28:33.179Z,35.23
2019-01-23T01:31:02.258Z,33.17
2019-01-23T01:33:34.042Z,31.13
2019-01-23T01:36:02.198Z,32.67
2019-01-23T01:38:31.369Z,31.10
2019-01-23T01:41:00.454Z,30.07
2019-01-23T01:43:29.554Z,33.53
2019-01-23T01:45:58.620Z,34.43
2019-01-23T01:48:27.723Z,36.27
2019-01-23T01:50:56.883Z,37.50
2019-01-23T01:53:25.966Z,32.87
2019-01-23T01:55:55.126Z,40.87
2019-01-23T01:58:24.314Z,36.97
2019-01-23T02:00:53.379Z,35.77
2019-01-23T02:03:22.475Z,36.30
2019-01-23T02:05:51.547Z,37.43
2019-01-23T02:08:20.639Z,40.60
2019-01-23T02:10:49.659Z,36.80
2019-01-23T02:13:18.768Z,32.90
2019-01-23T02:15:47.839Z,39.10
2019-01-23T02:18:16.906Z,33.10
2019-01-23T02:20:45.936Z,35.10
2019-01-23T02:23:14.998Z,33.13
2019-01-23T02:25:44.007Z,35.97
2019-01-23T02:28:13.226Z,35.23
2019-01-23T02:30:42.375Z,37.60
2019-01-23T02:33:11.760Z,32.93
2019-01-23T02:35:40.857Z,33.37
2019-01-23T02:38:10.062Z,33.40
2019-01-23T02:40:39.174Z,35.50
2019-01-23T02:43:08.314Z,36.60
2019-01-23T02:45:37.383Z,34.57
2019-01-23T02:48:06.459Z,35.53
2019-01-23T02:50:35.471Z,35.13
2019-01-23T02:53:04.546Z,40.43
2019-01-23T02:55:34.082Z,32.27
2019-01-23T02:58:03.181Z,40.77
2019-01-23T03:00:32.339Z,37.13
2019-01-23T03:03:01.406Z,38.07
2019-01-23T03:05:30.531Z,39.47
2019-01-23T03:07:59.611Z,36.43
2019-01-23T03:10:28.682Z,34.00
2019-01-23T03:12:57.808Z,40.33
2019-01-23T03:15:26.794Z,35.37
2019-01-23T03:17:55.889Z,31.17
2019-01-23T03:20:24.991Z,34.07
2019-01-23T03:22:54.059Z,33.50
2019-01-23T03:25:25.217Z,41.73
2019-01-23T03:27:53.987Z,33.40
2019-01-23T03:30:24.104Z,35.53
2019-01-23T03:33:12.508Z,35.50
2019-01-23T03:35:41.659Z,36.23
2019-01-23T03:38:10.728Z,32.70
2019-01-23T03:40:39.934Z,35.00
2019-01-23T03:43:09.104Z,38.53
2019-01-23T03:45:38.179Z,35.83
2019-01-23T03:48:07.347Z,36.30
2019-01-23T03:50:36.443Z,39.47
2019-01-23T03:53:05.544Z,42.70
2019-01-23T03:55:34.528Z,37.40
2019-01-23T03:58:03.541Z,36.53
2019-01-23T04:00:32.547Z,37.53
2019-01-23T04:03:20.749Z,36.90
2019-01-23T04:05:49.927Z,36.27
2019-01-23T04:08:19.079Z,36.43
2019-01-23T04:10:48.121Z,40.30
2019-01-23T04:13:17.222Z,36.37
2019-01-23T04:15:46.270Z,33.73
2019-01-23T04:18:15.261Z,35.47
2019-01-23T04:20:44.336Z,38.77
2019-01-23T04:23:13.319Z,37.67
2019-01-23T04:25:45.809Z,37.97
2019-01-23T04:28:14.875Z,38.50
2019-01-23T04:30:43.932Z,41.87
2019-01-23T04:33:13.009Z,39.17
2019-01-23T04:35:42.066Z,38.97
2019-01-23T04:38:11.113Z,38.53
2019-01-23T04:40:40.210Z,37.07
2019-01-23T04:43:09.280Z,37.83
2019-01-23T04:45:38.261Z,37.50
2019-01-23T04:48:07.287Z,38.17
2019-01-23T04:50:55.289Z,40.03
2019-01-23T04:53:31.878Z,43.43
2019-01-23T04:56:00.945Z,42.53
2019-01-23T04:58:29.996Z,38.90
2019-01-23T05:00:59.161Z,40.97
2019-01-23T05:03:28.211Z,38.47
2019-01-23T05:05:57.238Z,37.37
2019-01-23T05:08:26.319Z,41.03
2019-01-23T05:10:55.453Z,36.53
2019-01-23T05:13:24.514Z,34.90
2019-01-23T05:15:53.602Z,35.00
2019-01-23T05:18:22.663Z,34.77
2019-01-23T05:20:51.785Z,39.80
2019-01-23T05:23:20.856Z,40.87
2019-01-23T05:25:49.838Z,37.77
2019-01-23T05:28:18.841Z,37.50
2019-01-23T05:30:47.927Z,37.63
2019-01-23T05:33:17.066Z,38.87
2019-01-23T05:35:53.583Z,36.53
2019-01-23T05:38:22.630Z,36.93
2019-01-23T05:40:51.614Z,39.03
2019-01-23T05:43:20.688Z,39.27
2019-01-23T05:45:49.738Z,37.73
2019-01-23T05:48:18.801Z,41.57
2019-01-23T05:50:48.130Z,43.23
2019-01-23T05:53:17.215Z,39.30
2019-01-23T05:55:46.283Z,39.40
2019-01-23T05:58:15.360Z,41.07
2019-01-23T06:00:44.403Z,40.63
2019-01-23T06:03:13.461Z,45.20
2019-01-23T06:05:42.554Z,38.40
2019-01-23T06:08:11.638Z,42.40
2019-01-23T06:10:40.719Z,40.97
2019-01-23T06:13:09.794Z,38.70
2019-01-23T06:15:38.851Z,39.30
2019-01-23T06:18:07.975Z,40.87
2019-01-23T06:20:37.075Z,42.13
2019-01-23T06:23:06.138Z,40.83
2019-01-23T06:25:35.180Z,43.00
2019-01-23T06:28:04.252Z,40.77
2019-01-23T06:30:33.320Z,42.70
2019-01-23T06:33:02.363Z,38.37
2019-01-23T06:35:31.433Z,38.23
2019-01-23T06:38:00.484Z,41.77
2019-01-23T06:40:29.728Z,44.97
2019-01-23T06:42:58.685Z,38.80
2019-01-23T06:45:27.704Z,41.83
2019-01-23T06:47:56.811Z,36.70
2019-01-23T06:50:25.811Z,43.67
2019-01-23T06:52:54.879Z,43.30
2019-01-23T06:55:23.903Z,40.47
2019-01-23T06:58:12.193Z,41.80
2019-01-23T07:00:41.326Z,42.50
2019-01-23T07:03:10.369Z,44.73
2019-01-23T07:05:39.430Z,42.87
2019-01-23T07:08:08.521Z,40.00
2019-01-23T07:10:37.567Z,39.37
2019-01-23T07:13:06.622Z,39.13
2019-01-23T07:15:35.705Z,37.13
2019-01-23T07:18:04.861Z,39.77
2019-01-23T07:20:33.942Z,46.17
2019-01-23T07:23:03.049Z,42.20
2019-01-23T07:25:32.107Z,41.43
2019-01-23T07:28:01.162Z,40.43
2019-01-23T07:30:32.892Z,39.23
2019-01-23T07:33:01.936Z,44.43
2019-01-23T07:35:31.001Z,39.50
2019-01-23T07:38:19.245Z,44.63
2019-01-23T07:40:48.353Z,46.17
2019-01-23T07:43:17.502Z,44.57
2019-01-23T07:45:46.577Z,40.90
2019-01-23T07:48:17.036Z,45.17
2019-01-23T07:50:46.293Z,48.00
2019-01-23T07:53:15.378Z,42.10
2019-01-23T07:55:44.442Z,40.90
2019-01-23T07:58:32.661Z,37.47
2019-01-23T08:01:01.758Z,40.07
2019-01-23T08:03:30.817Z,45.10
2019-01-23T08:05:59.797Z,44.40
2019-01-23T08:08:28.895Z,38.17
2019-01-23T08:10:57.888Z,42.87
2019-01-23T08:13:26.978Z,42.67
2019-01-23T08:15:56.100Z,43.03
2019-01-23T08:18:25.155Z,41.63
2019-01-23T08:20:54.135Z,43.87
2019-01-23T08:23:23.239Z,42.27
2019-01-23T08:25:52.314Z,42.50
2019-01-23T08:28:21.318Z,47.87
2019-01-23T08:30:50.577Z,47.07
2019-01-23T08:33:19.694Z,41.20
2019-01-23T08:35:48.693Z,47.27
2019-01-23T08:38:17.776Z,43.57
2019-01-23T08:40:46.770Z,41.00
2019-01-23T08:43:15.898Z,44.00
2019-01-23T08:45:44.918Z,43.97
2019-01-23T08:48:13.890Z,45.77
2019-01-23T08:50:44.495Z,44.33
2019-01-23T08:53:13.455Z,45.27
2019-01-23T08:55:42.462Z,44.30
2019-01-23T08:58:11.528Z,42.23
2019-01-23T09:00:45.728Z,44.10
2019-01-23T09:03:11.394Z,38.93
2019-01-23T09:05:40.398Z,46.07
2019-01-23T09:08:09.477Z,40.30
2019-01-23T09:10:38.529Z,39.47
2019-01-23T09:13:07.603Z,43.20
2019-01-23T09:15:36.659Z,42.37
2019-01-23T09:18:07.113Z,45.17
2019-01-23T09:20:36.428Z,45.80
2019-01-23T09:23:05.502Z,48.87
2019-01-23T09:25:34.553Z,47.07
2019-01-23T09:28:03.658Z,42.80
2019-01-23T09:30:39.174Z,47.67
2019-01-23T09:33:23.993Z,41.20
2019-01-23T09:36:24.655Z,43.73
2019-01-23T09:39:30.919Z,46.63
2019-01-23T09:42:53.323Z,40.83
2019-01-23T09:45:58.030Z,44.20
2019-01-23T09:49:02.671Z,46.37
2019-01-23T09:52:16.113Z,40.80
2019-01-23T09:54:45.218Z,44.80
2019-01-23T09:57:14.282Z,41.83
2019-01-23T09:59:43.426Z,42.03
2019-01-23T10:02:13.611Z,40.50
2019-01-23T10:04:42.672Z,36.17
2019-01-23T10:07:11.718Z,44.27
2019-01-23T10:09:40.730Z,43.20
2019-01-23T10:12:09.780Z,38.80
2019-01-23T10:14:38.850Z,41.97
2019-01-23T10:17:07.950Z,42.37
2019-01-23T10:19:37.076Z,40.80
2019-01-23T10:22:06.062Z,44.00
2019-01-23T10:24:36.072Z,43.00
2019-01-23T10:27:05.376Z,37.03
2019-01-23T10:29:34.473Z,37.37
2019-01-23T10:32:03.583Z,44.17
2019-01-23T10:34:32.640Z,42.07
2019-01-23T10:37:01.799Z,43.77
2019-01-23T10:39:30.868Z,34.97
2019-01-23T10:41:59.910Z,39.17
2019-01-23T10:44:48.146Z,39.87
2019-01-23T10:47:36.386Z,38.63
2019-01-23T10:50:06.097Z,40.63
2019-01-23T10:52:35.074Z,55.03
2019-01-23T10:55:04.581Z,38.33
2019-01-23T10:57:33.654Z,39.80
2019-01-23T11:00:02.726Z,40.03
2019-01-23T11:02:31.782Z,63.40
2019-01-23T11:05:00.899Z,41.87
2019-01-23T11:07:29.944Z,86.17
2019-01-23T11:09:59.033Z,40.83
2019-01-23T11:12:28.130Z,38.97
2019-01-23T11:14:57.257Z,39.13
2019-01-23T11:17:26.301Z,38.37
2019-01-23T11:19:55.358Z,39.73
2019-01-23T11:22:24.430Z,43.07
2019-01-23T11:24:53.506Z,35.03
2019-01-23T11:27:22.568Z,36.00
2019-01-23T11:29:51.608Z,38.67
2019-01-23T11:32:20.587Z,38.10
2019-01-23T11:34:49.561Z,38.13
2019-01-23T11:37:18.593Z,37.80
2019-01-23T11:39:47.708Z,40.53
2019-01-23T11:42:16.817Z,32.13
2019-01-23T11:44:45.899Z,36.37
2019-01-23T11:47:14.867Z,35.27
2019-01-23T11:49:43.981Z,34.07
2019-01-23T11:52:14.462Z,35.20
2019-01-23T11:54:43.467Z,31.17
2019-01-23T11:57:12.450Z,32.70
2019-01-23T11:59:41.536Z,33.90
2019-01-23T12:02:10.600Z,33.70
2019-01-23T12:04:39.649Z,30.30
2019-01-23T12:07:08.768Z,34.37
2019-01-23T12:09:37.741Z,33.77
2019-01-23T12:12:06.787Z,33.70
2019-01-23T12:14:35.782Z,36.40
2019-01-23T12:17:04.851Z,31.07
2019-01-23T12:19:33.936Z,37.13
2019-01-23T12:22:03.005Z,33.07
2019-01-23T12:24:32.100Z,30.20
2019-01-23T12:27:01.142Z,32.53
2019-01-23T12:29:30.146Z,33.60
2019-01-23T12:31:59.201Z,32.30
2019-01-23T12:34:28.246Z,31.03
2019-01-23T12:36:57.238Z,29.10
2019-01-23T12:39:26.297Z,32.40
2019-01-23T12:41:55.274Z,33.63
2019-01-23T12:44:24.262Z,30.43
2019-01-23T12:46:53.470Z,31.77
2019-01-23T12:49:22.612Z,34.07
2019-01-23T12:51:51.694Z,38.43
2019-01-23T12:54:20.834Z,36.17
2019-01-23T12:56:49.895Z,31.93
2019-01-23T12:59:18.998Z,32.80
2019-01-23T13:01:48.002Z,33.37
2019-01-23T13:04:17.045Z,32.43
2019-01-23T13:06:46.021Z,33.20
2019-01-23T13:09:15.090Z,35.13
2019-01-23T13:11:44.150Z,38.40
2019-01-23T13:14:13.263Z,65.13
2019-01-23T13:16:42.271Z,46.07
2019-01-23T13:19:11.238Z,38.33
2019-01-23T13:21:40.225Z,34.63
2019-01-23T13:24:09.345Z,32.43
2019-01-23T13:26:38.433Z,65.10
2019-01-23T13:29:07.482Z,30.60
2019-01-23T13:31:36.574Z,29.93
2019-01-23T13:34:05.625Z,30.87
2019-01-23T13:36:34.666Z,33.40
2019-01-23T13:39:05.633Z,36.30
2019-01-23T13:41:34.682Z,31.87
2019-01-23T13:44:03.749Z,34.47
2019-01-23T13:46:32.843Z,33.90
2019-01-23T13:49:01.887Z,33.47
2019-01-23T13:51:30.981Z,34.90
2019-01-23T13:54:00.021Z,32.93
2019-01-23T13:56:30.062Z,32.43
2019-01-23T13:58:59.129Z,35.30
2019-01-23T14:01:28.223Z,35.23
2019-01-23T14:03:57.202Z,31.07
2019-01-23T14:06:26.238Z,33.23
2019-01-23T14:08:55.314Z,32.10
2019-01-23T14:11:24.359Z,34.23
2019-01-23T14:13:53.440Z,32.60
2019-01-23T14:16:22.489Z,29.87
2019-01-23T14:18:51.549Z,32.57
2019-01-23T14:21:20.615Z,33.10
2019-01-23T14:23:49.702Z,29.80
2019-01-23T14:26:18.767Z,30.00
2019-01-23T14:28:47.834Z,27.87
2019-01-23T14:31:16.854Z,25.40
2019-01-23T14:33:45.907Z,28.90
2019-01-23T14:36:14.982Z,27.23
2019-01-23T14:38:44.097Z,30.47
2019-01-23T14:41:13.085Z,27.93
2019-01-23T14:43:42.174Z,28.43
2019-01-23T14:46:11.249Z,29.83
2019-01-23T14:48:40.299Z,27.47
2019-01-23T14:51:09.404Z,26.37
2019-01-23T14:53:38.598Z,29.90
2019-01-23T14:56:07.649Z,34.70
2019-01-23T14:58:36.686Z,28.00
2019-01-23T15:01:05.751Z,28.93
2019-01-23T15:03:34.781Z,27.97
2019-01-23T15:06:03.838Z,31.27
2019-01-23T15:08:32.914Z,28.10
2019-01-23T15:11:01.895Z,28.47
2019-01-23T15:13:30.951Z,31.27
2019-01-23T15:16:00.037Z,34.67
2019-01-23T15:18:29.020Z,34.23
2019-01-23T15:20:58.094Z,34.47
2019-01-23T15:23:27.187Z,33.70
2019-01-23T15:26:15.409Z,33.53
2019-01-23T15:28:44.520Z,32.17
2019-01-23T15:31:13.564Z,31.67
2019-01-23T15:33:42.533Z,33.17
2019-01-23T15:36:11.605Z,30.93
2019-01-23T15:38:40.641Z,33.17
2019-01-23T15:41:09.699Z,32.17
2019-01-23T15:43:38.714Z,29.83
2019-01-23T15:46:07.839Z,32.93
2019-01-23T15:48:36.903Z,31.40
2019-01-23T15:51:06.027Z,31.77
2019-01-23T15:53:35.098Z,33.27
2019-01-23T15:56:04.216Z,31.37
2019-01-23T15:58:33.286Z,32.73
2019-01-23T16:01:02.329Z,36.57
2019-01-23T16:03:31.378Z,36.17
2019-01-23T16:06:00.452Z,32.40
2019-01-23T16:08:29.497Z,33.90
2019-01-23T16:10:58.459Z,34.93
2019-01-23T16:13:27.540Z,35.57
2019-01-23T16:15:56.600Z,35.30
2019-01-23T16:18:25.666Z,33.10
2019-01-23T16:20:56.255Z,33.40
2019-01-23T16:23:25.330Z,32.97
2019-01-23T16:25:54.406Z,39.50
2019-01-23T16:28:23.490Z,38.08
2019-01-23T16:30:52.574Z,38.70
2019-01-23T16:33:21.807Z,34.93
2019-01-23T16:35:53.814Z,31.97
2019-01-23T16:38:22.823Z,32.43
2019-01-23T16:40:52.112Z,36.93
2019-01-23T16:43:21.157Z,41.80
2019-01-23T16:45:50.251Z,38.17
2019-01-23T16:48:19.243Z,56.00
2019-01-23T16:50:48.289Z,41.13
2019-01-23T16:53:17.437Z,64.43
2019-01-23T16:55:46.497Z,39.70
2019-01-23T16:58:15.549Z,37.67
2019-01-23T17:00:44.641Z,44.43
2019-01-23T17:03:13.791Z,37.00
2019-01-23T17:05:42.859Z,40.13
2019-01-23T17:08:13.017Z,37.23
2019-01-23T17:10:44.692Z,43.47
2019-01-23T17:13:13.823Z,38.67
2019-01-23T17:15:42.991Z,37.87
2019-01-23T17:18:11.974Z,41.07
2019-01-23T17:20:43.473Z,38.47
2019-01-23T17:23:12.586Z,38.77
2019-01-23T17:25:41.634Z,36.73
2019-01-23T17:28:11.491Z,41.00
2019-01-23T17:30:40.557Z,38.73
2019-01-23T17:33:09.602Z,41.83
2019-01-23T17:35:38.654Z,52.37
2019-01-23T17:38:07.739Z,40.03
2019-01-23T17:40:40.064Z,38.97
2019-01-23T17:43:13.150Z,38.20
2019-01-23T17:45:42.339Z,36.93
2019-01-23T17:48:13.132Z,36.43
2019-01-23T17:50:42.331Z,39.80
2019-01-23T17:53:20.345Z,32.07
2019-01-23T17:55:54.864Z,34.67
2019-01-23T17:58:23.982Z,34.50
2019-01-23T18:01:00.016Z,33.37
2019-01-23T18:03:29.115Z,32.93
2019-01-23T18:05:58.154Z,34.23
2019-01-23T18:08:29.919Z,31.97
2019-01-23T18:10:59.339Z,35.30
2019-01-23T18:13:28.489Z,33.97
2019-01-23T18:16:08.971Z,36.10
2019-01-23T18:18:38.026Z,35.37
2019-01-23T18:21:07.082Z,33.20
2019-01-23T18:23:36.290Z,32.57
2019-01-23T18:26:05.417Z,31.97
2019-01-23T18:28:34.458Z,32.80
2019-01-23T18:31:38.781Z,33.73
2019-01-23T18:34:54.884Z,32.77
2019-01-23T18:37:52.236Z,41.67
2019-01-23T18:40:58.418Z,37.03
2019-01-23T18:44:05.867Z,38.70
2019-01-23T18:47:22.762Z,35.80
2019-01-23T18:50:18.602Z,35.93
2019-01-23T18:52:47.671Z,37.83
2019-01-23T18:55:17.836Z,38.70
2019-01-23T18:57:46.986Z,40.87
2019-01-23T19:00:18.556Z,40.07
2019-01-23T19:02:47.633Z,37.93
2019-01-23T19:05:17.890Z,41.67
2019-01-23T19:07:46.954Z,40.83
2019-01-23T19:10:16.069Z,32.93
2019-01-23T19:12:45.129Z,37.67
2019-01-23T19:15:15.342Z,41.07
2019-01-23T19:17:44.491Z,48.53
2019-01-23T19:20:16.527Z,40.80
2019-01-23T19:22:45.618Z,42.87
2019-01-23T19:25:15.046Z,44.70
2019-01-23T19:27:44.200Z,41.17
2019-01-23T19:30:16.071Z,42.27
2019-01-23T19:32:45.148Z,46.33
2019-01-23T19:35:14.189Z,50.27
2019-01-23T19:37:43.291Z,42.03
2019-01-23T19:40:12.470Z,47.73
2019-01-23T19:42:41.470Z,45.90
2019-01-23T19:45:16.346Z,45.23
2019-01-23T19:47:45.380Z,51.03
2019-01-23T19:50:14.547Z,45.43
2019-01-23T19:52:43.667Z,46.07
2019-01-23T19:55:14.571Z,43.27
2019-01-23T19:57:43.637Z,44.50
2019-01-23T20:00:16.527Z,45.83
2019-01-23T20:02:45.581Z,47.03
2019-01-23T20:05:16.569Z,46.90
2019-01-23T20:07:45.601Z,53.60
2019-01-23T20:10:17.170Z,46.07
2019-01-23T20:12:46.273Z,50.80
2019-01-23T20:15:16.465Z,46.47
2019-01-23T20:17:45.583Z,50.03
2019-01-23T20:20:14.737Z,44.27
2019-01-23T20:22:43.886Z,51.37
2019-01-23T20:25:16.375Z,46.40
2019-01-23T20:27:45.570Z,56.27
2019-01-23T20:30:24.228Z,48.47
2019-01-23T20:32:53.330Z,52.57
2019-01-23T20:35:22.450Z,51.30
2019-01-23T20:37:51.452Z,54.80
2019-01-23T20:40:20.508Z,46.20
2019-01-23T20:42:50.248Z,50.17
2019-01-23T20:45:19.314Z,57.43
2019-01-23T20:47:49.938Z,49.73
2019-01-23T20:50:21.340Z,54.93
2019-01-23T20:52:50.449Z,48.97
2019-01-23T20:55:19.555Z,47.67
2019-01-23T20:57:48.617Z,49.50
2019-01-23T21:00:20.111Z,49.30
2019-01-23T21:02:49.066Z,56.53
2019-01-23T21:05:18.145Z,50.83
2019-01-23T21:07:47.225Z,50.63
2019-01-23T21:10:16.975Z,51.70
2019-01-23T21:12:46.031Z,48.80
2019-01-23T21:15:23.521Z,49.27
2019-01-23T21:17:52.702Z,52.37
2019-01-23T21:20:21.766Z,46.87
2019-01-23T21:22:50.877Z,55.10
2019-01-23T21:25:19.940Z,49.13
2019-01-23T21:27:48.982Z,53.23
2019-01-23T21:30:23.422Z,47.30
2019-01-23T21:32:52.539Z,79.00
2019-01-23T21:35:21.565Z,42.40
2019-01-23T21:37:50.639Z,44.77
2019-01-23T21:40:24.879Z,67.87
2019-01-23T21:42:55.538Z,61.97
2019-01-23T21:45:24.591Z,47.63
2019-01-23T21:47:53.686Z,46.17
2019-01-23T21:50:23.200Z,54.60
2019-01-23T21:52:52.254Z,47.07
2019-01-23T21:55:22.262Z,61.67
2019-01-23T21:57:51.789Z,62.80
2019-01-23T22:00:26.559Z,59.03
2019-01-23T22:02:56.699Z,55.47
2019-01-23T22:05:25.774Z,48.33
2019-01-23T22:07:54.846Z,47.57
2019-01-23T22:10:23.907Z,55.87
2019-01-23T22:12:52.950Z,48.93
2019-01-23T22:15:23.010Z,46.43
2019-01-23T22:17:52.053Z,52.50
2019-01-23T22:20:21.177Z,44.47
2019-01-23T22:22:50.187Z,44.23
2019-01-23T22:25:21.274Z,49.43
2019-01-23T22:27:50.346Z,48.40
2019-01-23T22:30:30.025Z,43.17
2019-01-23T22:32:59.146Z,44.50
2019-01-23T22:35:28.125Z,47.30
2019-01-23T22:37:57.293Z,50.77
2019-01-23T22:40:26.374Z,51.33
2019-01-23T22:42:55.492Z,42.27
2019-01-23T22:45:24.566Z,45.83
2019-01-23T22:47:53.565Z,48.63
2019-01-23T22:50:26.885Z,48.80
2019-01-23T22:52:55.963Z,46.87
2019-01-23T22:55:24.979Z,43.93
2019-01-23T22:57:54.066Z,46.77
2019-01-23T23:00:38.786Z,47.43
2019-01-23T23:03:13.966Z,42.47
2019-01-23T23:05:42.962Z,43.93
2019-01-23T23:08:12.021Z,47.13
2019-01-23T23:10:41.135Z,47.10
2019-01-23T23:13:10.129Z,45.50
2019-01-23T23:15:39.231Z,50.83
2019-01-23T23:18:08.342Z,45.73
2019-01-23T23:20:37.398Z,43.13
2019-01-23T23:23:06.554Z,42.67
2019-01-23T23:25:35.662Z,44.07
2019-01-23T23:28:04.721Z,43.80
2019-01-23T23:30:33.766Z,47.73
2019-01-23T23:33:02.861Z,49.57
2019-01-23T23:35:31.957Z,44.30
2019-01-23T23:38:01.009Z,43.33
2019-01-23T23:40:30.061Z,43.47
2019-01-23T23:42:59.107Z,44.80
2019-01-23T23:45:28.149Z,47.70
2019-01-23T23:47:57.242Z,52.17
2019-01-23T23:50:26.217Z,46.97
2019-01-23T23:52:55.287Z,46.23
2019-01-23T23:55:24.382Z,50.40
2019-01-23T23:57:53.448Z,47.57
